Time;durP1;ratioP1;P1;durP2;ratioP2;P2;SDS_P1;SDS_P2;PMS_P1;PMS_P2;Temp;Humidity;BMP_temperature;BMP_pressure;BME280_temperature;BME280_humidity;BME280_pressure;Samples;Min_cycle;Max_cycle;Signal;HPM_P1;HPM_P2
2021/04/23 00:01:18;;;;;;;21.13;8.73;;;4.80;99.90;;;;;;5009741;28;20029;-65
2021/04/23 00:03:51;;;;;;;19.55;9.27;;;4.90;99.90;;;;;;5011243;28;20486;-65
2021/04/23 00:06:24;;;;;;;24.73;9.40;;;4.80;99.90;;;;;;5012217;28;20111;-64
2021/04/23 00:08:53;;;;;;;20.40;8.38;;;4.90;99.90;;;;;;5012443;28;20498;-65
2021/04/23 00:11:21;;;;;;;21.90;9.27;;;4.80;99.90;;;;;;5011458;28;20029;-65
2021/04/23 00:13:47;;;;;;;21.20;9.25;;;4.80;99.90;;;;;;5027952;28;20472;-62
2021/04/23 00:16:13;;;;;;;20.45;8.88;;;4.70;99.90;;;;;;5012869;28;20102;-63
2021/04/23 00:18:40;;;;;;;19.38;9.20;;;4.70;99.90;;;;;;5011302;28;20045;-63
2021/04/23 00:21:08;;;;;;;19.30;8.70;;;4.70;99.90;;;;;;5011286;28;20114;-64
2021/04/23 00:23:35;;;;;;;20.50;9.10;;;4.60;99.90;;;;;;5012779;28;20018;-63
2021/04/23 00:26:03;;;;;;;19.58;9.10;;;4.50;99.90;;;;;;5011450;28;20036;-63
2021/04/23 00:28:29;;;;;;;;;;;4.50;99.90;;;;;;4995584;28;20037;-64
2021/04/23 00:30:55;;;;;;;21.05;9.32;;;4.50;99.90;;;;;;5012325;28;19906;-65
2021/04/23 00:33:23;;;;;;;20.98;8.88;;;4.50;99.90;;;;;;5012520;28;20057;-64
2021/04/23 00:35:50;;;;;;;21.52;8.40;;;4.50;99.90;;;;;;5011222;28;20032;-64
2021/04/23 00:38:21;;;;;;;21.50;9.00;;;4.50;99.90;;;;;;5012456;28;20036;-64
2021/04/23 00:40:56;;;;;;;22.75;9.95;;;4.50;99.90;;;;;;5011143;28;20337;-65
2021/04/23 00:43:26;;;;;;;20.35;8.40;;;4.50;99.90;;;;;;5012312;28;20037;-65
2021/04/23 00:45:53;;;;;;;22.63;9.52;;;4.40;99.90;;;;;;5012425;28;20026;-65
2021/04/23 00:48:20;;;;;;;23.55;8.65;;;4.40;99.90;;;;;;5012162;28;20041;-64
2021/04/23 00:50:56;;;;;;;19.13;8.60;;;4.40;99.90;;;;;;5012230;28;20022;-64
2021/04/23 00:53:26;;;;;;;21.90;9.18;;;4.30;99.90;;;;;;5012330;28;20018;-64
2021/04/23 00:55:55;;;;;;;24.42;8.82;;;4.20;99.90;;;;;;5010907;28;20033;-64
2021/04/23 00:58:23;;;;;;;20.70;9.00;;;4.20;99.90;;;;;;5015972;28;20104;-63
2021/04/23 01:00:57;;;;;;;21.92;8.57;;;4.20;99.90;;;;;;5016053;28;20105;-64
2021/04/23 01:03:24;;;;;;;21.58;9.60;;;4.20;99.90;;;;;;5031484;28;20083;-64
2021/04/23 01:05:51;;;;;;;23.85;9.75;;;4.00;99.90;;;;;;5014335;28;20022;-63
2021/04/23 01:08:18;;;;;;;22.60;9.07;;;3.90;99.90;;;;;;5016105;28;20101;-65
2021/04/23 01:10:44;;;;;;;24.83;8.75;;;4.00;99.90;;;;;;5015774;28;20101;-63
2021/04/23 01:13:09;;;;;;;23.45;9.35;;;3.90;99.90;;;;;;5014648;28;20113;-64
2021/04/23 01:15:35;;;;;;;20.67;8.98;;;3.90;99.90;;;;;;5014784;28;20040;-65
2021/04/23 01:18:01;;;;;;;20.90;8.80;;;3.90;99.90;;;;;;5014974;28;20026;-64
2021/04/23 01:20:27;;;;;;;19.92;8.60;;;3.90;99.90;;;;;;5015827;28;20124;-63
2021/04/23 01:22:53;;;;;;;25.02;9.75;;;3.80;99.90;;;;;;5015926;28;20478;-64
2021/04/23 01:25:20;;;;;;;21.88;8.70;;;3.90;99.90;;;;;;5015778;28;20105;-64
2021/04/23 01:27:46;;;;;;;21.23;9.70;;;3.80;99.90;;;;;;5015918;28;20355;-65
2021/04/23 01:30:15;;;;;;;25.92;9.98;;;3.80;99.90;;;;;;5014256;28;20029;-64
2021/04/23 01:32:42;;;;;;;22.55;8.45;;;3.70;99.90;;;;;;5015348;28;20030;-64
2021/04/23 01:35:22;;;;;;;23.05;8.93;;;3.60;99.90;;;;;;5015630;28;20056;-65
2021/04/23 01:37:48;;;;;;;22.42;8.88;;;3.70;99.90;;;;;;5014407;28;20466;-64
2021/04/23 01:40:15;;;;;;;21.98;9.57;;;3.70;99.90;;;;;;5015172;28;20029;-64
2021/04/23 01:42:41;;;;;;;22.25;9.10;;;3.70;99.90;;;;;;5014326;28;20036;-63
2021/04/23 01:45:10;;;;;;;22.90;10.07;;;3.60;99.90;;;;;;5014184;28;20568;-64
2021/04/23 01:47:37;;;;;;;22.23;9.80;;;3.60;99.90;;;;;;5014090;28;20049;-64
2021/04/23 01:50:06;;;;;;;21.75;8.98;;;3.50;99.90;;;;;;5015232;28;20386;-63
2021/04/23 01:52:32;;;;;;;21.73;8.35;;;3.50;99.90;;;;;;5015315;28;20501;-64
2021/04/23 01:54:58;;;;;;;19.70;8.38;;;3.70;99.90;;;;;;5015468;28;20040;-63
2021/04/23 01:57:24;;;;;;;24.65;9.93;;;3.60;99.90;;;;;;5015124;28;20030;-64
2021/04/23 01:59:50;;;;;;;23.13;9.23;;;3.60;99.90;;;;;;5015019;28;20025;-64
2021/04/23 02:02:17;;;;;;;21.63;9.10;;;3.60;99.90;;;;;;5015383;28;20025;-63
2021/04/23 02:04:46;;;;;;;25.45;9.10;;;3.60;99.90;;;;;;5013877;28;20036;-64
2021/04/23 02:07:14;;;;;;;23.67;9.15;;;3.60;99.90;;;;;;5030314;28;20022;-64
2021/04/23 02:09:40;;;;;;;24.10;8.65;;;3.60;99.90;;;;;;5012652;28;20117;-63
2021/04/23 02:12:07;;;;;;;21.23;8.25;;;3.60;99.90;;;;;;5015028;28;20472;-63
2021/04/23 02:14:32;;;;;;;24.17;8.75;;;3.60;99.90;;;;;;5013587;28;20032;-63
2021/04/23 02:16:58;;;;;;;23.38;9.20;;;3.60;99.90;;;;;;5014708;28;20030;-63
2021/04/23 02:19:24;;;;;;;23.73;9.13;;;3.50;99.90;;;;;;5014607;28;20057;-64
2021/04/23 02:21:50;;;;;;;21.88;8.93;;;3.50;99.90;;;;;;5013367;28;20108;-64
2021/04/23 02:24:17;;;;;;;25.58;9.27;;;3.50;99.90;;;;;;5014556;28;20029;-64
2021/04/23 02:26:43;;;;;;;23.88;8.65;;;3.50;99.90;;;;;;5014709;28;20026;-64
2021/04/23 02:29:14;;;;;;;20.23;8.38;;;3.50;99.90;;;;;;5014350;28;20470;-63
2021/04/23 02:31:42;;;;;;;22.73;8.48;;;3.40;99.90;;;;;;5014536;28;20516;-64
2021/04/23 02:34:13;;;;;;;22.58;8.85;;;3.40;99.90;;;;;;5014414;28;20018;-62
2021/04/23 02:36:40;;;;;;;24.45;9.20;;;3.40;99.90;;;;;;5013597;28;20030;-64
2021/04/23 02:39:08;;;;;;;23.73;8.68;;;3.30;99.90;;;;;;5014286;28;20077;-63
2021/04/23 02:41:35;;;;;;;21.30;9.00;;;3.30;99.90;;;;;;5014576;28;20493;-65
2021/04/23 02:44:01;;;;;;;22.38;8.85;;;3.20;99.90;;;;;;5014298;28;20037;-63
2021/04/23 02:46:27;;;;;;;24.33;10.52;;;3.20;99.90;;;;;;5014192;28;20029;-63
2021/04/23 02:48:54;;;;;;;21.67;8.88;;;3.20;99.90;;;;;;5014179;28;20025;-63
2021/04/23 02:51:24;;;;;;;23.90;9.68;;;3.20;99.90;;;;;;5012871;28;20022;-63
2021/04/23 02:53:50;;;;;;;25.10;10.43;;;3.20;99.90;;;;;;5014219;28;20037;-62
2021/04/23 02:56:18;;;;;;;23.63;9.48;;;3.20;99.90;;;;;;5012926;28;20025;-63
2021/04/23 02:58:44;;;;;;;22.00;9.18;;;3.10;99.90;;;;;;4996188;28;20026;-63
2021/04/23 03:01:19;;;;;;;27.23;9.57;;;3.10;99.90;;;;;;5013003;28;20088;-63
2021/04/23 03:03:45;;;;;;;24.75;10.23;;;3.10;99.90;;;;;;5012726;28;20057;-64
2021/04/23 03:06:14;;;;;;;25.30;9.13;;;3.00;99.90;;;;;;5012614;28;20053;-64
2021/04/23 03:08:39;;;;;;;;;;;3.00;99.90;;;;;;5014101;28;20022;-64
2021/04/23 03:11:17;;;;;;;24.13;9.65;;;3.00;99.90;;;;;;5013902;28;19959;-63
2021/04/23 03:13:49;;;;;;;25.02;9.68;;;3.10;99.90;;;;;;5013976;28;20022;-64
2021/04/23 03:16:16;;;;;;;22.88;10.35;;;3.10;99.90;;;;;;5012498;28;20025;-63
2021/04/23 03:18:43;;;;;;;23.58;9.18;;;3.20;99.90;;;;;;5013627;28;20080;-62
2021/04/23 03:21:10;;;;;;;25.67;10.45;;;3.10;99.90;;;;;;5013615;28;20576;-62
2021/04/23 03:23:37;;;;;;;29.13;10.88;;;3.00;99.90;;;;;;5013485;28;20393;-63
2021/04/23 03:26:08;;;;;;;23.98;10.05;;;3.00;99.90;;;;;;5011810;28;20053;-63
2021/04/23 03:28:36;;;;;;;24.52;9.23;;;2.90;99.90;;;;;;5012617;28;20519;-63
2021/04/23 03:31:03;;;;;;;24.77;10.10;;;2.90;99.90;;;;;;5012516;28;20057;-63
2021/04/23 03:33:30;;;;;;;27.58;11.30;;;2.80;99.90;;;;;;5011601;28;20045;-62
2021/04/23 03:35:58;;;;;;;23.20;9.85;;;2.70;99.90;;;;;;5011996;28;20038;-63
2021/04/23 03:38:27;;;;;;;27.17;9.52;;;2.60;99.90;;;;;;5012166;28;20033;-63
2021/04/23 03:40:54;;;;;;;21.38;9.80;;;2.70;99.90;;;;;;5013359;28;20478;-63
2021/04/23 03:43:20;;;;;;;27.80;10.13;;;2.70;99.90;;;;;;5012911;28;20486;-64
2021/04/23 03:45:48;;;;;;;25.92;10.98;;;2.70;99.90;;;;;;5013006;28;20034;-64
2021/04/23 03:48:14;;;;;;;20.80;9.48;;;2.70;99.90;;;;;;5013012;28;20097;-63
2021/04/23 03:50:40;;;;;;;31.63;12.10;;;2.60;99.90;;;;;;5012814;28;20105;-63
2021/04/23 03:53:10;;;;;;;26.17;9.85;;;2.70;99.90;;;;;;5011598;28;20430;-58
2021/04/23 03:55:40;;;;;;;28.00;9.75;;;2.70;99.90;;;;;;5011566;28;20049;-63
2021/04/23 03:58:05;;;;;;;22.48;9.88;;;2.60;99.90;;;;;;5013028;28;20440;-63
2021/04/23 04:00:44;;;;;;;26.10;11.38;;;2.70;99.90;;;;;;5012507;28;20022;-63
2021/04/23 04:03:12;;;;;;;24.67;9.98;;;2.60;99.90;;;;;;5012702;28;20053;-62
2021/04/23 04:05:37;;;;;;;24.73;9.93;;;2.60;99.90;;;;;;5011496;28;20116;-64
2021/04/23 04:08:04;;;;;;;24.23;9.43;;;2.50;99.90;;;;;;5011489;28;20062;-63
2021/04/23 04:10:31;;;;;;;25.02;10.75;;;2.60;99.90;;;;;;5012466;28;20037;-63
2021/04/23 04:12:56;;;;;;;23.55;10.70;;;2.60;99.90;;;;;;5011761;28;20087;-64
2021/04/23 04:15:24;;;;;;;28.30;12.57;;;2.50;99.90;;;;;;5011592;28;20433;-64
2021/04/23 04:17:50;;;;;;;21.63;9.60;;;2.50;99.90;;;;;;5012654;28;20026;-63
2021/04/23 04:20:17;;;;;;;28.23;12.13;;;2.60;99.90;;;;;;5012449;28;20505;-63
2021/04/23 04:22:43;;;;;;;24.58;10.25;;;2.50;99.90;;;;;;5012628;28;20033;-64
2021/04/23 04:25:19;;;;;;;23.92;11.02;;;2.50;99.90;;;;;;5012475;28;20476;-62
2021/04/23 04:27:45;;;;;;;24.92;10.65;;;2.60;99.90;;;;;;5011145;28;20026;-62
2021/04/23 04:30:12;;;;;;;23.67;9.68;;;2.60;99.90;;;;;;5011201;28;20040;-65
2021/04/23 04:32:38;;;;;;;27.85;11.20;;;2.60;99.90;;;;;;5011804;28;20038;-64
2021/04/23 04:35:05;;;;;;;26.35;9.77;;;2.60;99.90;;;;;;5012489;28;20053;-64
2021/04/23 04:37:31;;;;;;;29.40;10.95;;;2.60;99.90;;;;;;5011271;28;20022;-64
2021/04/23 04:39:57;;;;;;;25.33;9.73;;;2.60;99.90;;;;;;5012404;28;20036;-64
2021/04/23 04:42:24;;;;;;;25.92;10.57;;;2.70;99.90;;;;;;5012334;28;20084;-63
2021/04/23 04:44:49;;;;;;;24.17;9.93;;;2.70;99.90;;;;;;5012452;28;20446;-64
2021/04/23 04:47:15;;;;;;;24.00;9.90;;;2.80;99.90;;;;;;5012519;28;20050;-64
2021/04/23 04:49:41;;;;;;;24.33;9.90;;;2.90;99.90;;;;;;5012097;28;20093;-63
2021/04/23 04:52:07;;;;;;;25.73;9.77;;;2.90;99.90;;;;;;5012322;28;20049;-65
2021/04/23 04:54:33;;;;;;;24.20;9.80;;;3.00;99.90;;;;;;5012067;28;20084;-64
2021/04/23 04:56:59;;;;;;;25.35;9.48;;;3.00;99.90;;;;;;5011345;28;20022;-62
2021/04/23 04:59:24;;;;;;;25.83;10.43;;;3.10;99.90;;;;;;5011786;28;20030;-66
2021/04/23 05:01:50;;;;;;;24.67;10.32;;;3.10;99.90;;;;;;5011853;28;20061;-65
2021/04/23 05:04:16;;;;;;;26.15;10.18;;;3.10;99.90;;;;;;5012230;28;20068;-63
2021/04/23 05:06:41;;;;;;;25.50;10.32;;;3.10;99.90;;;;;;5012065;28;20046;-66
2021/04/23 05:09:07;;;;;;;26.52;9.82;;;3.20;99.90;;;;;;5011894;28;20084;-63
2021/04/23 05:11:33;;;;;;;24.48;10.65;;;3.20;99.90;;;;;;5011926;28;20457;-64
2021/04/23 05:13:59;;;;;;;23.77;9.30;;;3.30;99.90;;;;;;5012158;28;20065;-63
2021/04/23 05:16:25;;;;;;;28.40;12.52;;;3.40;99.90;;;;;;5012046;28;20033;-64
2021/04/23 05:18:51;;;;;;;26.75;10.50;;;3.40;99.90;;;;;;5010557;28;20141;-64
2021/04/23 05:21:17;;;;;;;25.15;10.18;;;3.40;99.90;;;;;;5011832;28;20367;-64
2021/04/23 05:23:42;;;;;;;22.38;9.60;;;3.50;99.90;;;;;;5011917;28;20359;-65
2021/04/23 05:26:08;;;;;;;26.45;10.50;;;3.60;99.90;;;;;;5011880;28;20037;-64
2021/04/23 05:28:34;;;;;;;25.70;10.45;;;3.60;99.90;;;;;;5010257;28;20026;-64
2021/04/23 05:31:00;;;;;;;28.00;10.48;;;3.70;99.90;;;;;;5009825;28;20022;-63
2021/04/23 05:33:26;;;;;;;24.70;10.02;;;3.70;99.90;;;;;;5012628;28;20030;-65
2021/04/23 05:35:52;;;;;;;23.52;10.35;;;3.90;99.90;;;;;;5011377;28;20026;-65
2021/04/23 05:38:17;;;;;;;22.58;9.18;;;3.90;99.90;;;;;;5011849;28;20100;-64
2021/04/23 05:40:46;;;;;;;23.50;9.27;;;4.00;99.90;;;;;;5011465;28;20193;-63
2021/04/23 05:43:14;;;;;;;22.88;9.57;;;4.10;99.90;;;;;;5011356;28;20030;-64
2021/04/23 05:45:43;;;;;;;28.33;9.88;;;4.20;99.90;;;;;;5013670;28;20057;-65
2021/04/23 05:48:09;;;;;;;23.10;9.00;;;4.30;99.90;;;;;;5029945;28;20022;-63
2021/04/23 05:50:38;;;;;;;21.25;8.60;;;4.40;99.90;;;;;;5013126;28;20044;-63
2021/04/23 05:53:05;;;;;;;23.65;9.35;;;4.40;99.90;;;;;;5021082;28;20033;-63
2021/04/23 05:55:31;;;;;;;22.42;10.27;;;4.50;99.90;;;;;;5021039;28;20029;-63
2021/04/23 05:57:59;;;;;;;23.75;8.45;;;4.50;99.90;;;;;;5034705;28;20098;-63
2021/04/23 06:00:27;;;;;;;31.48;11.02;;;4.60;99.90;;;;;;5023218;28;20037;-63
2021/04/23 06:02:54;;;;;;;;;;;4.60;99.90;;;;;;5015130;28;20461;-63
2021/04/23 06:05:20;;;;;;;27.27;8.70;;;4.70;99.90;;;;;;5014628;28;19910;-63
2021/04/23 06:07:46;;;;;;;19.58;8.48;;;4.70;99.90;;;;;;5015934;28;20033;-63
2021/04/23 06:10:14;;;;;;;20.60;8.25;;;4.80;99.90;;;;;;5032674;28;20021;-63
2021/04/23 06:12:41;;;;;;;23.95;7.82;;;5.00;99.90;;;;;;5034491;28;20553;-63
2021/04/23 06:15:10;;;;;;;21.42;8.02;;;5.20;99.90;;;;;;5033828;28;20034;-64
2021/04/23 06:17:36;;;;;;;22.08;8.65;;;5.40;99.90;;;;;;5034330;28;20409;-64
2021/04/23 06:20:07;;;;;;;20.90;7.63;;;5.60;99.90;;;;;;5032770;28;20022;-63
2021/04/23 06:22:33;;;;;;;20.73;7.65;;;5.70;99.90;;;;;;5034185;28;20103;-63
2021/04/23 06:24:59;;;;;;;20.90;9.43;;;5.70;99.90;;;;;;5031658;28;20057;-63
2021/04/23 06:27:24;;;;;;;21.98;9.10;;;5.70;99.90;;;;;;5014290;28;20133;-64
2021/04/23 06:29:51;;;;;;;25.75;9.55;;;5.60;99.90;;;;;;5013933;28;20380;-64
2021/04/23 06:32:18;;;;;;;22.38;8.18;;;5.50;99.90;;;;;;5012772;28;20409;-64
2021/04/23 06:34:46;;;;;;;25.73;9.15;;;5.50;99.90;;;;;;5013269;28;20451;-64
2021/04/23 06:37:11;;;;;;;29.27;9.43;;;5.60;99.90;;;;;;5014415;28;20391;-64
2021/04/23 06:39:37;;;;;;;22.63;9.25;;;5.60;99.90;;;;;;5013690;28;20042;-66
2021/04/23 06:42:03;;;;;;;22.33;8.52;;;5.80;99.90;;;;;;5012659;28;20033;-63
2021/04/23 06:44:28;;;;;;;22.52;8.80;;;5.80;99.90;;;;;;5014311;28;20032;-64
2021/04/23 06:46:54;;;;;;;24.48;8.50;;;6.00;99.90;;;;;;5013819;28;20018;-63
2021/04/23 06:49:20;;;;;;;23.00;7.75;;;6.10;99.90;;;;;;5013409;28;20496;-65
2021/04/23 06:51:46;;;;;;;21.58;8.30;;;6.40;99.90;;;;;;5013707;28;20045;-64
2021/04/23 06:54:12;;;;;;;22.35;8.77;;;6.70;99.90;;;;;;5013655;28;20113;-64
2021/04/23 06:56:38;;;;;;;26.08;9.43;;;;;;;;;;5012650;28;20130;-65
2021/04/23 06:59:04;;;;;;;21.67;8.35;;;7.00;99.90;;;;;;5013457;28;20029;-59
2021/04/23 07:01:30;;;;;;;19.95;8.30;;;7.10;99.90;;;;;;5013846;28;20057;-55
2021/04/23 07:03:56;;;;;;;21.48;8.90;;;7.00;99.90;;;;;;5014372;28;20068;-51
2021/04/23 07:06:22;;;;;;;29.70;9.65;;;7.30;99.90;;;;;;5012205;28;21137;-49
2021/04/23 07:08:48;;;;;;;21.83;8.82;;;7.70;99.90;;;;;;5012761;28;20036;-50
2021/04/23 07:11:16;;;;;;;20.48;8.10;;;8.00;99.90;;;;;;5013471;28;20022;-49
2021/04/23 07:13:42;;;;;;;27.20;9.23;;;8.00;99.90;;;;;;5014291;28;20014;-50
2021/04/23 07:16:07;;;;;;;25.52;8.68;;;8.20;99.90;;;;;;5016564;28;20513;-53
2021/04/23 07:18:33;;;;;;;20.20;8.63;;;8.30;99.90;;;;;;5015898;28;20030;-51
2021/04/23 07:20:59;;;;;;;22.02;8.95;;;8.30;99.90;;;;;;5014253;28;20100;-56
2021/04/23 07:23:24;;;;;;;21.40;8.30;;;8.20;99.90;;;;;;5013534;28;20026;-50
2021/04/23 07:25:50;;;;;;;18.25;8.73;;;8.20;99.90;;;;;;5011753;28;20056;-54
2021/04/23 07:28:16;;;;;;;20.30;8.93;;;8.00;99.90;;;;;;5023579;28;20478;-49
2021/04/23 07:30:43;;;;;;;23.02;9.25;;;7.70;99.90;;;;;;5012169;28;20091;-49
2021/04/23 07:33:12;;;;;;;22.42;9.10;;;7.70;99.90;;;;;;5012382;28;20058;-52
2021/04/23 07:35:39;;;;;;;23.10;8.25;;;7.90;99.90;;;;;;5012057;28;20030;-53
2021/04/23 07:38:05;;;;;;;21.15;8.45;;;8.10;99.90;;;;;;5010783;28;20026;-52
2021/04/23 07:40:32;;;;;;;19.02;7.97;;;8.10;99.90;;;;;;5011992;28;20087;-49
2021/04/23 07:43:00;;;;;;;21.20;8.07;;;8.20;99.90;;;;;;5012677;28;20030;-54
2021/04/23 07:45:27;;;;;;;18.30;7.85;;;8.10;99.90;;;;;;5012452;28;20061;-53
2021/04/23 07:47:53;;;;;;;20.52;8.63;;;8.10;99.90;;;;;;5011410;28;20029;-49
2021/04/23 07:50:21;;;;;;;23.98;8.18;;;8.00;99.90;;;;;;5012377;28;20029;-51
2021/04/23 07:52:47;;;;;;;21.45;8.43;;;7.90;99.90;;;;;;5012429;28;20053;-51
2021/04/23 07:55:14;;;;;;;25.38;8.80;;;8.10;99.90;;;;;;5028916;28;20439;-53
2021/04/23 07:57:41;;;;;;;22.77;8.48;;;7.90;99.90;;;;;;5032096;28;20656;-51
2021/04/23 08:00:08;;;;;;;19.83;8.27;;;7.80;99.90;;;;;;5031948;28;20025;-55
2021/04/23 08:02:34;;;;;;;27.13;8.20;;;7.90;99.90;;;;;;5031944;28;20040;-50
2021/04/23 08:05:00;;;;;;;19.75;8.10;;;8.10;99.90;;;;;;5032148;28;20033;-51
2021/04/23 08:07:25;;;;;;;18.30;7.28;;;8.30;99.90;;;;;;5030558;28;20025;-52
2021/04/23 08:09:51;;;;;;;20.75;7.45;;;8.30;99.90;;;;;;5032209;28;20032;-49
2021/04/23 08:12:17;;;;;;;19.65;8.30;;;8.60;99.90;;;;;;5030862;28;20029;-53
2021/04/23 08:14:43;;;;;;;17.20;7.30;;;8.60;99.90;;;;;;5032206;28;20036;-49
2021/04/23 08:17:08;;;;;;;19.13;7.75;;;8.90;99.90;;;;;;5032241;28;20028;-48
2021/04/23 08:19:35;;;;;;;20.80;7.65;;;9.00;99.90;;;;;;5032065;28;20102;-54
2021/04/23 08:22:02;;;;;;;21.05;8.10;;;9.00;99.90;;;;;;5031557;28;20108;-54
2021/04/23 08:24:27;;;;;;;24.15;8.35;;;9.00;99.90;;;;;;5030325;28;20120;-51
2021/04/23 08:26:54;;;;;;;20.70;8.55;;;9.10;99.90;;;;;;5030337;28;20524;-52
2021/04/23 08:29:19;;;;;;;18.92;8.93;;;8.90;99.90;;;;;;5030076;28;20025;-51
2021/04/23 08:31:45;;;;;;;17.55;8.15;;;9.00;99.90;;;;;;5031503;28;20033;-51
2021/04/23 08:34:12;;;;;;;17.80;8.23;;;9.30;99.90;;;;;;5031800;28;20021;-51
2021/04/23 08:36:38;;;;;;;17.20;8.00;;;9.40;99.90;;;;;;5031562;28;20516;-54
2021/04/23 08:39:09;;;;;;;20.27;8.82;;;9.30;99.90;;;;;;5031572;28;20021;-51
2021/04/23 08:41:36;;;;;;;20.02;8.77;;;9.60;99.90;;;;;;5031553;28;20160;-56
2021/04/23 08:44:03;;;;;;;20.15;8.93;;;9.60;99.90;;;;;;5030625;28;20508;-53
2021/04/23 08:46:29;;;;;;;22.73;10.48;;;9.20;99.90;;;;;;5031109;28;20025;-52
2021/04/23 08:48:59;;;;;;;19.20;8.20;;;9.20;99.90;;;;;;5031550;28;20075;-52
2021/04/23 08:51:27;;;;;;;18.67;8.43;;;9.00;99.90;;;;;;5030331;28;20022;-55
2021/04/23 08:53:54;;;;;;;20.23;7.78;;;9.10;99.90;;;;;;5031208;28;20020;-55
2021/04/23 08:56:20;;;;;;;19.98;7.68;;;9.00;99.90;;;;;;5031723;28;20442;-52
2021/04/23 08:58:49;;;;;;;21.77;8.38;;;9.00;99.90;;;;;;5031254;28;20037;-54
2021/04/23 09:01:16;;;;;;;17.58;7.60;;;9.20;99.90;;;;;;5031332;28;20033;-56
2021/04/23 09:03:41;;;;;;;20.10;9.43;;;9.30;99.90;;;;;;5030532;28;20365;-50
2021/04/23 09:06:17;;;;;;;22.75;8.70;;;9.20;99.90;;;;;;5031314;28;20034;-54
2021/04/23 09:08:55;;;;;;;18.92;8.00;;;9.30;99.90;;;;;;5031245;28;20018;-50
2021/04/23 09:11:27;;;;;;;18.55;7.30;;;9.60;99.90;;;;;;5031259;28;20572;-54
2021/04/23 09:13:55;;;;;;;20.90;8.35;;;9.80;99.90;;;;;;5031585;28;20097;-51
2021/04/23 09:16:23;;;;;;;17.38;7.68;;;9.90;99.90;;;;;;5030042;28;20025;-54
2021/04/23 09:18:48;;;;;;;16.50;7.47;;;9.90;99.90;;;;;;5034245;28;20052;-50
2021/04/23 09:21:15;;;;;;;16.10;7.63;;;9.70;99.90;;;;;;5035647;28;20078;-52
2021/04/23 09:23:53;;;;;;;17.10;7.75;;;9.80;99.90;;;;;;5035591;28;20021;-55
2021/04/23 09:26:35;;;;;;;18.23;8.07;;;9.70;99.90;;;;;;5035123;28;20508;-56
2021/04/23 09:29:03;;;;;;;21.35;8.82;;;10.20;99.90;;;;;;5035145;28;20072;-55
2021/04/23 09:40:46;;;;;;;19.52;9.25;;;;;;;;;;5034127;28;20087;-54
2021/04/23 09:43:12;;;;;;;19.25;8.50;;;;;;;;;;5034495;28;20450;-50
2021/04/23 09:45:49;;;;;;;18.10;9.15;;;;;;;;;;5034378;28;20473;-52
2021/04/23 09:48:19;;;;;;;19.38;9.07;;;;;;;;;;5034698;28;20032;-56
2021/04/23 09:50:45;;;;;;;19.98;8.98;;;;;;;;;;5034299;28;20081;-51
2021/04/23 09:53:10;;;;;;;20.02;8.80;;;;;;;;;;5034460;28;20072;-50
2021/04/23 09:55:36;;;;;;;18.05;9.25;;;;;;;;;;5033310;28;20482;-51
2021/04/23 09:58:07;;;;;;;20.15;8.73;;;;;;;;;;5034591;28;20029;-51
2021/04/23 10:00:35;;;;;;;16.13;8.02;;;;;;;;;;5034091;28;20029;-51
2021/04/23 10:03:03;;;;;;;19.63;9.00;;;;;;;;;;5034407;28;20030;-53
2021/04/23 10:05:30;;;;;;;18.48;8.85;;;;;;;;;;5024385;28;20044;-50
2021/04/23 10:07:56;;;;;;;17.77;8.90;;;;;;;;;;5014565;28;20057;-51
2021/04/23 10:10:22;;;;;;;17.25;8.35;;;10.50;99.90;;;;;;5013860;28;20025;-60
2021/04/23 10:12:51;;;;;;;19.88;8.82;;;11.10;99.90;;;;;;5014354;28;20026;-61
2021/04/23 10:15:18;;;;;;;20.77;8.82;;;;;;;;;;5014483;28;20296;-61
2021/04/23 10:17:46;;;;;;;19.17;9.43;;;;;;;;;;5014821;28;20050;-62
2021/04/23 10:20:15;;;;;;;19.75;9.15;;;11.30;99.90;;;;;;5013631;28;20061;-61
2021/04/23 10:22:41;;;;;;;16.67;9.38;;;;;;;;;;5013867;28;20548;-60
2021/04/23 10:25:09;;;;;;;18.13;10.85;;;;;;;;;;5013817;28;20482;-62
2021/04/23 10:27:36;;;;;;;18.73;10.43;;;;;;;;;;5013209;28;20088;-60
2021/04/23 10:30:04;;;;;;;18.92;10.20;;;;;;;;;;5012890;28;20437;-58
2021/04/23 10:32:30;;;;;;;16.65;10.13;;;11.90;99.90;;;;;;5013151;28;20037;-60
2021/04/23 10:34:58;;;;;;;18.17;10.13;;;;;;;;;;5012502;28;20026;-62
2021/04/23 10:37:24;;;;;;;21.57;9.90;;;;;;;;;;5013208;28;20084;-61
2021/04/23 10:39:52;;;;;;;21.65;10.05;;;;;;;;;;5013817;28;20279;-61
2021/04/23 10:42:36;;;;;;;19.20;10.37;;;;;;;;;;5013746;28;20426;-61
2021/04/23 10:45:03;;;;;;;18.23;10.23;;;;;;;;;;5012972;28;20030;-61
2021/04/23 10:53:46;;;;;;;18.80;11.25;;;;;;;;;;5016571;28;20040;-61
2021/04/23 10:56:18;;;;;;;19.98;10.73;;;;;;;;;;5033684;28;20029;-61
2021/04/23 10:58:44;;;;;;;19.38;10.45;;;;;;;;;;5032190;28;20036;-62
2021/04/23 11:01:13;;;;;;;19.17;10.10;;;;;;;;;;5033195;28;20032;-61
2021/04/23 11:03:40;;;;;;;20.35;10.10;;;;;;;;;;5033346;28;20081;-60
2021/04/23 11:06:07;;;;;;;18.83;10.10;;;;;;;;;;5031907;28;20038;-61
2021/04/23 11:08:34;;;;;;;23.08;10.05;;;;;;;;;;5032556;28;20128;-60
2021/04/23 11:11:00;;;;;;;21.15;10.75;;;;;;;;;;5032923;28;20057;-61
2021/04/23 11:13:27;;;;;;;17.42;10.52;;;;;;;;;;5032942;28;20022;-61
2021/04/23 11:16:12;;;;;;;20.05;11.27;;;;;;;;;;5033024;28;20436;-62
2021/04/23 11:18:38;;;;;;;18.00;10.80;;;;;;;;;;5024622;28;20029;-61
2021/04/23 11:21:22;;;;;;;17.33;10.20;;;;;;;;;;5027285;28;20075;-60
2021/04/23 11:24:07;;;;;;;21.88;10.70;;;;;;;;;;5019085;28;20504;-61
2021/04/23 11:26:52;;;;;;;17.27;9.93;;;;;;;;;;5010103;28;20561;-62
2021/04/23 11:29:18;;;;;;;19.35;11.40;;;;;;;;;;5011062;28;20037;-57
2021/04/23 11:32:03;;;;;;;19.23;12.00;;;;;;;;;;4662863;28;9999854;-61
2021/04/23 11:34:30;;;;;;;19.20;11.75;;;;;;;;;;5009025;28;20393;-61
2021/04/23 11:37:04;;;;;;;18.13;11.88;;;;;;;;;;5007920;28;20116;-61
2021/04/23 11:39:31;;;;;;;20.92;12.90;;;;;;;;;;5007130;28;20041;-61
2021/04/23 11:42:14;;;;;;;20.38;11.57;;;;;;;;;;5009285;28;20026;-61
2021/04/23 11:44:49;;;;;;;19.30;12.93;;;;;;;;;;5006738;28;20022;-60
2021/04/23 11:47:15;;;;;;;20.00;12.73;;;;;;;;;;5007173;28;20021;-60
2021/04/23 11:49:42;;;;;;;21.42;12.43;;;;;;;;;;4999249;28;20030;-61
2021/04/23 11:52:08;;;;;;;21.02;12.80;;;;;;;;;;5009130;28;20122;-61
2021/04/23 11:54:42;;;;;;;18.63;12.05;;;;;;;;;;5008296;28;20030;-58
2021/04/23 11:57:10;;;;;;;17.60;12.40;;;;;;;;;;5008836;28;20112;-61
2021/04/23 11:59:36;;;;;;;18.33;12.50;;;;;;;;;;5010369;28;20026;-60
2021/04/23 12:02:02;;;;;;;18.88;12.40;;;;;;;;;;5009625;28;20025;-60
2021/04/23 12:04:46;;;;;;;19.27;12.50;;;;;;;;;;5011701;28;20037;-57
2021/04/23 12:07:12;;;;;;;18.10;12.20;;;;;;;;;;5012329;28;20026;-61
2021/04/23 12:09:38;;;;;;;21.17;12.20;;;12.00;99.90;;;;;;5011831;28;20397;-61
2021/04/23 12:12:06;;;;;;;19.67;12.60;;;;;;;;;;5012206;28;20025;-61
2021/04/23 12:14:41;;;;;;;20.10;12.83;;;;;;;;;;5012088;28;20057;-60
2021/04/23 12:17:07;;;;;;;17.48;13.18;;;;;;;;;;5012080;28;20795;-58
2021/04/23 12:19:33;;;;;;;22.60;13.02;;;;;;;;;;5011946;28;20037;-61
2021/04/23 12:21:59;;;;;;;18.20;13.10;;;;;;;;;;5012333;28;20038;-60
2021/04/23 12:24:25;;;;;;;19.20;13.82;;;;;;;;;;5012057;28;20176;-60
2021/04/23 12:26:51;;;;;;;18.77;13.60;;;;;;;;;;5012370;28;20362;-59
2021/04/23 12:29:21;;;;;;;20.10;13.90;;;;;;;;;;4663797;28;9999813;-62
2021/04/23 12:31:47;;;;;;;20.63;13.95;;;;;;;;;;5008556;28;20283;-60
2021/04/23 12:34:15;;;;;;;19.15;13.68;;;;;;;;;;5009094;28;20386;-62
2021/04/23 12:36:43;;;;;;;19.40;13.70;;;;;;;;;;5011993;28;20037;-62
2021/04/23 12:39:12;;;;;;;20.45;13.88;;;;;;;;;;5014740;28;20022;-60
2021/04/23 12:41:39;;;;;;;21.95;13.98;;;;;;;;;;5013628;28;20040;-59
2021/04/23 12:44:07;;;;;;;20.40;13.83;;;;;;;;;;5014659;28;20033;-63
2021/04/23 12:46:37;;;;;;;19.95;14.10;;;;;;;;;;5010081;28;20034;-61
2021/04/23 12:49:08;;;;;;;19.88;13.73;;;;;;;;;;5008647;28;20022;-60
2021/04/23 12:51:35;;;;;;;20.65;14.25;;;;;;;;;;5008676;28;20044;-58
2021/04/23 12:54:01;;;;;;;18.95;13.77;;;;;;;;;;5012081;28;20030;-62
2021/04/23 12:56:29;;;;;;;18.73;13.95;;;17.40;73.20;;;;;;5012970;28;20045;-62
2021/04/23 12:58:55;;;;;;;18.83;13.77;;;;;;;;;;5013086;28;20040;-63
2021/04/23 13:01:22;;;;;;;19.67;13.48;;;18.50;64.70;;;;;;4658980;28;9999597;-60
2021/04/23 13:04:08;;;;;;;18.80;14.23;;;;;;;;;;4992855;28;20103;-60
2021/04/23 13:06:34;;;;;;;17.67;12.95;;;22.00;57.40;;;;;;4992663;28;20051;-60
2021/04/23 13:09:03;;;;;;;22.85;14.00;;;24.90;55.50;;;;;;4991086;28;20034;-60
2021/04/23 13:11:32;;;;;;;19.17;14.10;;;25.40;51.30;;;;;;4992639;28;20165;-52
2021/04/23 13:13:59;;;;;;;18.90;13.65;;;;;;;;;;4993049;28;20042;-60
2021/04/23 13:16:25;;;;;;;20.45;14.20;;;;;;;;;;4993084;28;20084;-60
2021/04/23 13:18:51;;;;;;;18.73;13.80;;;;;;;;;;4992577;28;20479;-54
2021/04/23 13:21:17;;;;;;;20.92;14.32;;;;;;;;;;4992559;28;20049;-59
2021/04/23 13:23:48;;;;;;;20.33;13.77;;;;;;;;;;4991404;28;20034;-60
2021/04/23 13:26:23;;;;;;;19.95;12.95;;;;;;;;;;4991675;28;20092;-60